OOCL Hamburg — VRZK9 — position and weather

sailwx.info

Track history (hours):
 
Tides and Currents Weather Stations Pressure Air Temp Water Temp Dewpoint Dewpoint Depression Visibility Wind Speed Wind Dir Waves Ship Positions

OOCL Hamburg

Last reported at 2014-Sep-23 12:16 UTC. Time now 2014-Sep-23 20:29 UTC.
Position N 22°16' E 114°07'.

Length 323 m; beam 42.8 m; draft 14.5 m.

Type: Cargo ship. MMSI: 477702000.

Date/timePositionNaut miles runAvg speedWind from/ knotsBaromVisibWave heightAir tempDewpointWater temp
2014-Sep-23 12:16N 22°16' E 114°07'4 0.3
2014-Sep-22 23:18N 22°20' E 114°07'11 2.7
2014-Sep-22 19:21N 22°10' E 114°09'0 0.0
2014-Sep-22 17:21N 22°10' E 114°09'0 0.0
2014-Sep-22 16:33N 22°10' E 114°09'0 0.1
2014-Sep-22 13:15N 22°10' E 114°09'0 0.0
2014-Sep-22 11:21N 22°10' E 114°09'0 0.0
2014-Sep-22 10:27N 22°10' E 114°09'0 0.0
2014-Sep-22 07:03N 22°10' E 114°09'0 0.0
2014-Sep-21 20:33N 22°10' E 114°09'0 0.0
2014-Sep-21 04:09N 22°10' E 114°09'0 0.0
2014-Sep-21 02:33N 22°10' E 114°09'0 0.0
2014-Sep-20 21:08N 22°10' E 114°09'3 4.2
2014-Sep-20 20:33N 22°12' E 114°11'1210.9
2014-Sep-20 19:25N 22°21' E 114°03'910.8
2014-Sep-20 18:33N 22°24' E 113°53'3 2.8
2014-Sep-20 17:32N 22°27' E 113°53'0 0.0
2014-Sep-20 16:32N 22°27' E 113°53'0 0.0
2014-Sep-20 15:32N 22°27' E 113°53'0 0.0
2014-Sep-20 14:32N 22°27' E 113°53'0 0.0
2014-Sep-20 13:32N 22°27' E 113°53'0 0.0
2014-Sep-20 12:29N 22°27' E 113°53'0 0.0
2014-Sep-20 11:32N 22°27' E 113°53'0 0.0
2014-Sep-20 10:32N 22°27' E 113°53'0 0.0
2014-Sep-20 09:29N 22°27' E 113°53'0 0.0
2014-Sep-20 08:32N 22°27' E 113°53'0 0.0
2014-Sep-20 07:29N 22°27' E 113°53'0 0.0
2014-Sep-20 06:32N 22°27' E 113°53'1 1.4
2014-Sep-20 05:33N 22°25' E 113°53'14 7.0
2014-Sep-20 03:33N 22°18' E 114°06'22 7.1
2014-Sep-20 00:31N 22°09' E 114°27'134 7.8
2014-Sep-19 07:13N 22°45' E 116°48'15 5.6
2014-Sep-19 04:33N 22°55' E 116°60'8 8.4
2014-Sep-19 03:33N 23°00' E 117°06'8 8.5
2014-Sep-19 02:33N 23°06' E 117°13'2712.5
2014-Sep-19 00:26N 23°24' E 117°35'1213.2
2014-Sep-18 23:33N 23°30' E 117°46'1110.7
2014-Sep-18 22:31N 23°36' E 117°55'1010.2
2014-Sep-18 21:33N 23°42' E 118°04'1110.9
2014-Sep-18 20:33N 23°49' E 118°13'1111.3
2014-Sep-18 19:33N 23°56' E 118°23'1111.4
2014-Sep-18 18:33N 24°02' E 118°33'1311.6
2014-Sep-18 17:26N 24°10' E 118°44'1011.4
2014-Sep-18 16:33N 24°17' E 118°52'1211.4
2014-Sep-18 15:31N 24°24' E 119°03'1111.2
2014-Sep-18 14:33N 24°31' E 119°11'1111.1
2014-Sep-18 13:32N 24°39' E 119°21'1111.3
2014-Sep-18 12:33N 24°46' E 119°30'1211.9
2014-Sep-18 11:33N 24°54' E 119°40'1212.6
2014-Sep-18 10:33N 25°05' E 119°47'1512.4
2014-Sep-18 09:23N 25°16' E 119°57'31711.0
2014-Sep-17 04:29N 29°26' E 123°38'1211.4
2014-Sep-17 03:27N 29°35' E 123°46'1010.9
2014-Sep-17 02:32N 29°42' E 123°54'1111.5
2014-Sep-17 01:33N 29°51' E 124°02'1111.0
2014-Sep-17 00:33N 29°60' E 124°10'1818.3
2014-Sep-16 23:33N 30°14' E 124°23'4911.8
2014-Sep-16 19:23N 30°53' E 124°58'2011.1
2014-Sep-16 17:32N 31°09' E 125°13'  
Track history (hours):
 
Tides and Currents Weather Stations Pressure Air Temp Water Temp Dewpoint Dewpoint Depression Visibility Wind Speed Wind Dir Waves Ship Positions

OOCL Hamburg

Last reported at 2014-Sep-23 12:16 UTC. Time now 2014-Sep-23 20:29 UTC.
Position N 22°16' E 114°07'.

Length 323 m; beam 42.8 m; draft 14.5 m.

Type: Cargo ship. MMSI: 477702000.

Date/timePositionNaut miles runAvg speedWind from/ knotsBaromVisibWave heightAir tempDewpointWater temp
2014-Sep-23 12:16N 22°16' E 114°07'4 0.3
2014-Sep-22 23:18N 22°20' E 114°07'11 2.7
2014-Sep-22 19:21N 22°10' E 114°09'0 0.0
2014-Sep-22 17:21N 22°10' E 114°09'0 0.0
2014-Sep-22 16:33N 22°10' E 114°09'0 0.1
2014-Sep-22 13:15N 22°10' E 114°09'0 0.0
2014-Sep-22 11:21N 22°10' E 114°09'0 0.0
2014-Sep-22 10:27N 22°10' E 114°09'0 0.0
2014-Sep-22 07:03N 22°10' E 114°09'0 0.0
2014-Sep-21 20:33N 22°10' E 114°09'0 0.0
2014-Sep-21 04:09N 22°10' E 114°09'0 0.0
2014-Sep-21 02:33N 22°10' E 114°09'0 0.0
2014-Sep-20 21:08N 22°10' E 114°09'3 4.2
2014-Sep-20 20:33N 22°12' E 114°11'1210.9
2014-Sep-20 19:25N 22°21' E 114°03'910.8
2014-Sep-20 18:33N 22°24' E 113°53'3 2.8
2014-Sep-20 17:32N 22°27' E 113°53'0 0.0
2014-Sep-20 16:32N 22°27' E 113°53'0 0.0
2014-Sep-20 15:32N 22°27' E 113°53'0 0.0
2014-Sep-20 14:32N 22°27' E 113°53'0 0.0
2014-Sep-20 13:32N 22°27' E 113°53'0 0.0
2014-Sep-20 12:29N 22°27' E 113°53'0 0.0
2014-Sep-20 11:32N 22°27' E 113°53'0 0.0
2014-Sep-20 10:32N 22°27' E 113°53'0 0.0
2014-Sep-20 09:29N 22°27' E 113°53'0 0.0
2014-Sep-20 08:32N 22°27' E 113°53'0 0.0
2014-Sep-20 07:29N 22°27' E 113°53'0 0.0
2014-Sep-20 06:32N 22°27' E 113°53'1 1.4
2014-Sep-20 05:33N 22°25' E 113°53'14 7.0
2014-Sep-20 03:33N 22°18' E 114°06'22 7.1
2014-Sep-20 00:31N 22°09' E 114°27'134 7.8
2014-Sep-19 07:13N 22°45' E 116°48'15 5.6
2014-Sep-19 04:33N 22°55' E 116°60'8 8.4
2014-Sep-19 03:33N 23°00' E 117°06'8 8.5
2014-Sep-19 02:33N 23°06' E 117°13'2712.5
2014-Sep-19 00:26N 23°24' E 117°35'1213.2
2014-Sep-18 23:33N 23°30' E 117°46'1110.7
2014-Sep-18 22:31N 23°36' E 117°55'1010.2
2014-Sep-18 21:33N 23°42' E 118°04'1110.9
2014-Sep-18 20:33N 23°49' E 118°13'1111.3
2014-Sep-18 19:33N 23°56' E 118°23'1111.4
2014-Sep-18 18:33N 24°02' E 118°33'1311.6
2014-Sep-18 17:26N 24°10' E 118°44'1011.4
2014-Sep-18 16:33N 24°17' E 118°52'1211.4
2014-Sep-18 15:31N 24°24' E 119°03'1111.2
2014-Sep-18 14:33N 24°31' E 119°11'1111.1
2014-Sep-18 13:32N 24°39' E 119°21'1111.3
2014-Sep-18 12:33N 24°46' E 119°30'1211.9
2014-Sep-18 11:33N 24°54' E 119°40'1212.6
2014-Sep-18 10:33N 25°05' E 119°47'1512.4
2014-Sep-18 09:23N 25°16' E 119°57'31711.0
2014-Sep-17 04:29N 29°26' E 123°38'1211.4
2014-Sep-17 03:27N 29°35' E 123°46'1010.9
2014-Sep-17 02:32N 29°42' E 123°54'1111.5
2014-Sep-17 01:33N 29°51' E 124°02'1111.0
2014-Sep-17 00:33N 29°60' E 124°10'1818.3
2014-Sep-16 23:33N 30°14' E 124°23'4911.8
2014-Sep-16 19:23N 30°53' E 124°58'2011.1
2014-Sep-16 17:32N 31°09' E 125°13'  

Dump ship's entire track history